Time;durP1;ratioP1;P1;durP2;ratioP2;P2;SDS_P1;SDS_P2;PMS_P1;PMS_P2;Temp;Humidity;BMP_temperature;BMP_pressure;BME280_temperature;BME280_humidity;BME280_pressure;Samples;Min_cycle;Max_cycle;Signal;HPM_P1;HPM_P2
2021/07/17 00:02:00;;;;;;;5.80;3.73;;;;;;;;;;4996863;28;20218;-73
2021/07/17 00:05:12;;;;;;;4.23;3.80;;;;;;;;;;4997105;28;20182;-72
2021/07/17 00:08:16;;;;;;;7.90;4.00;;;;;;;;;;4973979;28;20514;-73
2021/07/17 00:11:21;;;;;;;5.97;3.90;;;;;;;;;;4995726;28;20213;-73
2021/07/17 00:14:25;;;;;;;5.63;4.00;;;;;;;;;;4996333;28;20186;-73
2021/07/17 00:17:29;;;;;;;7.13;4.20;;;;;;;;;;4996412;28;20206;-73
2021/07/17 00:20:34;;;;;;;9.30;4.87;;;;;;;;;;4996373;28;20202;-72
2021/07/17 00:23:38;;;;;;;6.63;4.00;;;;;;;;;;4973669;28;20194;-73
2021/07/17 00:26:42;;;;;;;4.60;4.17;;;;;;;;;;4996564;28;20178;-72
2021/07/17 00:29:47;;;;;;;8.80;4.63;;;;;;;;;;4996649;28;20519;-74
2021/07/17 00:32:51;;;;;;;7.60;4.17;;;;;;;;;;4996604;28;20554;-73
2021/07/17 00:35:55;;;;;;;5.60;4.20;;;;;;;;;;4995852;28;20561;-73
2021/07/17 00:38:59;;;;;;;8.03;4.40;;;;;;;;;;4973162;28;20182;-73
2021/07/17 00:42:03;;;;;;;5.00;4.10;;;;;;;;;;4995562;28;20225;-72
2021/07/17 00:45:09;;;;;;;5.27;4.33;;;;;;;;;;4983741;28;20178;-73
2021/07/17 00:48:12;;;;;;;5.07;4.60;;;;;;;;;;4983554;28;20178;-73
2021/07/17 00:51:17;;;;;;;8.37;4.47;;;;;;;;;;4996078;28;20557;-73
2021/07/17 00:54:23;;;;;;;5.43;4.53;;;;;;;;;;4995943;28;20178;-73
2021/07/17 00:57:33;;;;;;;7.30;4.50;;;;;;;;;;4995950;28;20185;-72
2021/07/17 01:00:45;;;;;;;8.07;4.90;;;;;;;;;;4996020;28;20633;-73
2021/07/17 01:03:49;;;;;;;7.83;4.60;;;;;;;;;;4994656;28;20205;-72
2021/07/17 01:06:56;;;;;;;4.90;4.50;;;;;;;;;;4995870;28;20182;-73
2021/07/17 01:10:04;;;;;;;6.60;5.50;;;;;;;;;;4995705;28;20178;-73
2021/07/17 01:13:08;;;;;;;7.10;5.43;;;;;;;;;;4982965;28;20178;-72
2021/07/17 01:16:12;;;;;;;7.30;5.30;;;;;;;;;;4994645;28;20201;-73
2021/07/17 01:19:24;;;;;;;5.90;5.40;;;;;;;;;;4982799;28;20182;-73
2021/07/17 01:22:38;;;;;;;6.83;5.30;;;;;;;;;;4993897;28;20677;-73
2021/07/17 01:25:42;;;;;;;5.90;5.23;;;;;;;;;;4994435;28;20170;-73
2021/07/17 01:28:47;;;;;;;9.03;5.57;;;;;;;;;;4982487;28;20529;-73
2021/07/17 01:31:51;;;;;;;7.37;5.77;;;;;;;;;;4993965;28;20542;-73
2021/07/17 01:34:55;;;;;;;7.43;6.27;;;;;;;;;;4994168;28;20210;-73
2021/07/17 01:37:59;;;;;;;7.07;5.50;;;;;;;;;;4994783;28;20178;-73
2021/07/17 01:41:03;;;;;;;7.20;5.80;;;;;;;;;;4993862;28;20217;-72
2021/07/17 01:44:08;;;;;;;5.80;4.67;;;;;;;;;;4993382;28;20178;-73
2021/07/17 01:47:15;;;;;;;6.27;5.67;;;;;;;;;;4982754;28;20628;-73
2021/07/17 01:50:19;;;;;;;6.63;5.53;;;;;;;;;;4994317;28;20206;-73
2021/07/17 01:53:23;;;;;;;9.60;5.23;;;;;;;;;;4993014;28;20177;-72
2021/07/17 01:56:27;;;;;;;6.47;5.37;;;;;;;;;;4994295;28;20210;-72
2021/07/17 01:59:45;;;;;;;6.00;5.40;;;;;;;;;;4994509;28;20178;-73
2021/07/17 02:02:49;;;;;;;8.20;5.47;;;;;;;;;;4993177;28;20218;-73
2021/07/17 02:05:53;;;;;;;8.60;5.33;;;;;;;;;;4993257;28;20178;-72
2021/07/17 02:08:57;;;;;;;5.77;5.27;;;;;;;;;;4993371;28;20182;-73
2021/07/17 02:12:03;;;;;;;8.60;5.93;;;;;;;;;;4993091;28;20222;-72
2021/07/17 02:15:08;;;;;;;6.17;5.53;;;;;;;;;;4993877;28;20182;-73
2021/07/17 02:18:14;;;;;;;7.13;5.70;;;;;;;;;;4993783;28;20198;-73
2021/07/17 02:21:18;;;;;;;7.07;6.47;;;;;;;;;;4993148;28;20226;-73
2021/07/17 02:24:23;;;;;;;7.60;5.87;;;;;;;;;;4993442;28;20656;-73
2021/07/17 02:27:26;;;;;;;7.17;6.30;;;;;;;;;;4992975;28;20657;-73
2021/07/17 02:30:31;;;;;;;12.03;6.23;;;;;;;;;;4982024;28;20194;-73
2021/07/17 02:33:35;;;;;;;6.77;6.07;;;;;;;;;;4993429;28;20182;-73
2021/07/17 02:36:39;;;;;;;7.07;6.37;;;;;;;;;;4993486;28;20214;-73
2021/07/17 02:39:43;;;;;;;7.37;6.47;;;;;;;;;;4992862;28;20186;-73
2021/07/17 02:42:48;;;;;;;10.13;7.10;;;;;;;;;;4993934;28;20221;-72
2021/07/17 02:45:52;;;;;;;9.07;6.73;;;;;;;;;;4993855;28;20183;-73
2021/07/17 02:48:56;;;;;;;9.87;6.63;;;;;;;;;;4992912;28;20186;-73
2021/07/17 02:52:01;;;;;;;11.87;8.50;;;;;;;;;;4994455;28;20221;-73
2021/07/17 02:55:05;;;;;;;11.23;7.60;;;;;;;;;;4994012;28;20198;-73
2021/07/17 02:58:09;;;;;;;11.93;8.67;;;;;;;;;;4970557;28;20190;-72
2021/07/17 03:01:13;;;;;;;7.93;7.13;;;;;;;;;;4993635;28;20218;-73
2021/07/17 03:04:18;;;;;;;9.57;7.77;;;;;;;;;;4994652;28;20182;-73
2021/07/17 03:07:22;;;;;;;10.60;8.00;;;;;;;;;;4996909;28;20657;-72
2021/07/17 03:10:26;;;;;;;9.00;7.90;;;;;;;;;;4996839;28;20198;-73
2021/07/17 03:13:30;;;;;;;12.07;8.17;;;;;;;;;;4996898;28;20202;-72
2021/07/17 03:16:34;;;;;;;9.57;7.93;;;;;;;;;;4984719;28;20210;-73
2021/07/17 03:19:38;;;;;;;9.33;8.30;;;;;;;;;;4996746;28;20178;-73
2021/07/17 03:22:43;;;;;;;8.77;7.97;;;;;;;;;;4996891;28;20700;-71
2021/07/17 03:25:47;;;;;;;10.27;9.07;;;;;;;;;;4996318;28;20183;-73
2021/07/17 03:28:51;;;;;;;10.50;8.87;;;;;;;;;;4984688;28;20633;-73
2021/07/17 03:31:55;;;;;;;9.13;8.23;;;;;;;;;;4984626;28;20221;-73
2021/07/17 03:34:59;;;;;;;11.00;9.90;;;;;;;;;;4996426;28;20545;-73
2021/07/17 03:38:04;;;;;;;10.77;9.57;;;;;;;;;;4996308;28;20222;-73
2021/07/17 03:41:07;;;;;;;11.57;8.80;;;;;;;;;;4984158;28;20684;-73
2021/07/17 03:44:13;;;;;;;12.20;10.23;;;;;;;;;;4996261;28;20198;-73
2021/07/17 03:47:17;;;;;;;13.33;9.60;;;;;;;;;;4996507;28;20186;-73
2021/07/17 03:50:21;;;;;;;9.50;8.60;;;;;;;;;;4996708;28;20178;-73
2021/07/17 03:53:25;;;;;;;10.50;9.50;;;;;;;;;;4995370;28;20649;-72
2021/07/17 03:56:29;;;;;;;11.03;9.83;;;;;;;;;;4995144;28;20214;-73
2021/07/17 03:59:34;;;;;;;11.80;9.43;;;;;;;;;;4996304;28;20186;-73
2021/07/17 04:02:42;;;;;;;11.40;9.53;;;;;;;;;;4995896;28;20213;-72
2021/07/17 04:05:46;;;;;;;9.93;8.93;;;;;;;;;;4983810;28;20198;-72
2021/07/17 04:08:50;;;;;;;13.90;10.23;;;;;;;;;;4995014;28;20202;-73
2021/07/17 04:11:54;;;;;;;11.00;9.90;;;;;;;;;;4995674;28;20224;-73
2021/07/17 04:14:59;;;;;;;10.57;9.50;;;;;;;;;;4995760;28;20178;-73
2021/07/17 04:18:03;;;;;;;12.10;9.97;;;;;;;;;;4983629;28;20214;-73
2021/07/17 04:21:07;;;;;;;15.67;10.97;;;;;;;;;;4994705;28;20222;-72
2021/07/17 04:24:11;;;;;;;11.93;10.73;;;;;;;;;;4995026;28;20194;-73
2021/07/17 04:27:15;;;;;;;11.57;10.37;;;;;;;;;;4995195;28;20637;-72
2021/07/17 04:30:19;;;;;;;15.50;9.87;;;;;;;;;;4995710;28;20193;-72
2021/07/17 04:33:23;;;;;;;11.90;10.70;;;;;;;;;;4995343;28;20538;-73
2021/07/17 04:36:28;;;;;;;12.67;11.43;;;;;;;;;;4995616;28;20209;-72
2021/07/17 04:39:32;;;;;;;14.63;11.63;;;;;;;;;;4995524;28;20185;-73
2021/07/17 04:42:36;;;;;;;13.13;11.40;;;;;;;;;;4995573;28;20723;-73
2021/07/17 04:45:41;;;;;;;17.20;13.23;;;;;;;;;;4995396;28;20181;-73
2021/07/17 04:48:45;;;;;;;16.83;11.13;;;;;;;;;;4995030;28;20205;-72
2021/07/17 04:51:49;;;;;;;17.83;13.13;;;;;;;;;;4983105;28;20225;-73
2021/07/17 04:54:53;;;;;;;14.57;13.03;;;;;;;;;;4983469;28;20185;-73
2021/07/17 04:57:58;;;;;;;15.23;12.93;;;;;;;;;;4993779;28;20228;-73
2021/07/17 05:01:02;;;;;;;14.63;12.73;;;;;;;;;;4994750;28;20233;-72
2021/07/17 05:04:06;;;;;;;16.80;13.80;;;;;;;;;;4994513;28;20201;-73
2021/07/17 05:07:10;;;;;;;13.83;12.37;;;;;;;;;;4982805;28;20181;-73
2021/07/17 05:10:16;;;;;;;21.53;14.40;;;;;;;;;;4983032;28;20533;-73
2021/07/17 05:13:20;;;;;;;16.03;13.90;;;;;;;;;;4994061;28;20202;-73
2021/07/17 05:16:25;;;;;;;15.50;13.73;;;;;;;;;;4994793;28;20189;-73
2021/07/17 05:19:29;;;;;;;14.40;12.97;;;;;;;;;;4994100;28;20217;-72
2021/07/17 05:22:34;;;;;;;14.90;13.30;;;;;;;;;;4974130;28;20237;-72
2021/07/17 05:25:39;;;;;;;18.43;13.43;;;;;;;;;;4975552;28;20649;-73
2021/07/17 05:28:43;;;;;;;20.03;14.83;;;;;;;;;;4975186;28;20213;-73
2021/07/17 05:31:47;;;;;;;19.57;14.63;;;;;;;;;;4974086;28;20221;-72
2021/07/17 05:34:51;;;;;;;22.03;16.20;;;;;;;;;;4997554;23;20579;-74
2021/07/17 05:37:58;;;;;;;18.17;16.03;;;;;;;;;;4974661;28;20205;-73
2021/07/17 05:41:02;;;;;;;22.27;14.57;;;;;;;;;;4974287;28;20577;-73
2021/07/17 05:44:06;;;;;;;23.87;15.97;;;;;;;;;;4975128;28;20660;-74
2021/07/17 05:47:10;;;;;;;22.10;15.67;;;;;;;;;;4976852;28;20186;-73
2021/07/17 05:50:17;;;;;;;20.33;15.17;;;;;;;;;;4994640;28;20193;-73
2021/07/17 05:53:22;;;;;;;21.60;15.50;;;;;;;;;;4994530;28;20213;-74
2021/07/17 05:56:26;;;;;;;20.47;15.70;;;;;;;;;;5004364;28;20217;-74
2021/07/17 05:59:30;;;;;;;18.60;14.97;;;;;;;;;;4994019;28;20208;-74
2021/07/17 06:02:34;;;;;;;20.50;15.67;;;;;;;;;;4994571;28;20228;-74
2021/07/17 06:05:39;;;;;;;19.30;16.20;;;;;;;;;;4989561;28;20212;-73
2021/07/17 06:08:42;;;;;;;16.90;15.10;;;;;;;;;;4993347;28;20205;-73
2021/07/17 06:11:47;;;;;;;22.03;15.63;;;;;;;;;;4994290;28;20221;-73
2021/07/17 06:14:51;;;;;;;25.80;16.10;;;;;;;;;;4993957;28;20212;-73
2021/07/17 06:17:55;;;;;;;18.47;15.67;;;;;;;;;;4993662;28;20695;-73
2021/07/17 06:21:00;;;;;;;22.80;16.27;;;;;;;;;;4993983;28;20747;-73
2021/07/17 06:24:05;;;;;;;23.43;14.90;;;;;;;;;;4990137;28;20197;-73
2021/07/17 06:27:09;;;;;;;17.53;15.67;;;;;;;;;;4990454;28;20194;-73
2021/07/17 06:30:14;;;;;;;18.37;15.30;;;;;;;;;;4990578;28;20197;-73
2021/07/17 06:33:18;;;;;;;20.70;15.87;;;;;;;;;;4990337;28;20712;-73
2021/07/17 06:36:22;;;;;;;18.70;15.90;;;;;;;;;;4989478;28;20213;-73
2021/07/17 06:39:26;;;;;;;23.23;15.90;;;;;;;;;;4992284;28;20186;-73
2021/07/17 06:42:31;;;;;;;18.97;15.93;;;;;;;;;;4994042;28;20225;-73
2021/07/17 06:45:35;;;;;;;21.33;16.10;;;;;;;;;;4993728;28;20193;-73
2021/07/17 06:48:40;;;;;;;18.83;14.50;;;;;;;;;;5004732;28;20188;-73
2021/07/17 06:51:43;;;;;;;22.23;15.47;;;;;;;;;;4994456;28;20244;-73
2021/07/17 06:54:48;;;;;;;18.80;14.77;;;;;;;;;;4994440;28;20192;-73
2021/07/17 06:57:52;;;;;;;18.23;14.50;;;;;;;;;;4994415;28;20256;-73
2021/07/17 07:00:57;;;;;;;21.30;15.47;;;;;;;;;;4993788;28;20193;-73
2021/07/17 07:04:01;;;;;;;19.97;15.17;;;;;;;;;;4993445;28;20201;-73
2021/07/17 07:07:05;;;;;;;19.80;14.50;;;;;;;;;;4994333;28;20193;-73
2021/07/17 07:10:09;;;;;;;18.43;14.73;;;;;;;;;;4994124;28;20189;-73
2021/07/17 07:13:16;;;;;;;16.60;13.37;;;;;;;;;;4993972;28;20189;-73
2021/07/17 07:16:20;;;;;;;21.73;14.60;;;;;;;;;;4992786;28;20193;-73
2021/07/17 07:19:24;;;;;;;22.33;14.83;;;;;;;;;;4993579;28;20213;-73
2021/07/17 07:22:28;;;;;;;20.97;14.30;;;;;;;;;;4992850;28;20221;-73
2021/07/17 07:25:33;;;;;;;22.67;13.47;;;;;;;;;;5003377;28;20696;-73
2021/07/17 07:28:38;;;;;;;22.03;13.87;;;;;;;;;;4992871;28;20224;-73
2021/07/17 07:31:42;;;;;;;17.17;13.23;;;;;;;;;;4992029;28;20228;-73
2021/07/17 07:34:46;;;;;;;18.33;13.17;;;;;;;;;;4992451;28;20220;-74
2021/07/17 07:37:51;;;;;;;16.53;12.67;;;;;;;;;;4980825;28;20221;-73
2021/07/17 07:40:55;;;;;;;15.70;13.00;;;;;;;;;;4992713;28;20189;-73
2021/07/17 07:43:59;;;;;;;19.90;12.93;;;;;;;;;;4991782;28;20213;-73
2021/07/17 07:47:04;;;;;;;20.20;12.63;;;;;;;;;;4991401;28;20193;-73
2021/07/17 07:50:10;;;;;;;17.67;11.97;;;;;;;;;;4991106;28;20187;-73
2021/07/17 07:53:14;;;;;;;16.00;11.57;;;;;;;;;;4992567;28;20604;-72
2021/07/17 07:56:18;;;;;;;15.37;11.93;;;;;;;;;;4992473;28;20189;-73
2021/07/17 07:59:22;;;;;;;14.37;12.03;;;;;;;;;;5002082;28;20762;-72
2021/07/17 08:02:27;;;;;;;14.53;11.03;;;;;;;;;;4991256;28;20229;-73
2021/07/17 08:05:31;;;;;;;13.40;11.13;;;;;;;;;;4992285;28;20198;-73
2021/07/17 08:08:35;;;;;;;18.73;11.60;;;;;;;;;;4992272;28;20537;-73
2021/07/17 08:11:39;;;;;;;15.20;11.23;;;;;;;;;;4993208;28;20220;-72
2021/07/17 08:14:43;;;;;;;14.47;11.00;;;;;;;;;;5002540;28;20262;-73
2021/07/17 08:17:47;;;;;;;15.70;11.20;;;;;;;;;;4991014;28;20213;-73
2021/07/17 08:20:51;;;;;;;17.40;11.47;;;;;;;;;;4990929;28;20186;-73
2021/07/17 08:23:55;;;;;;;15.67;11.83;;;;;;;;;;4991653;28;20271;-73
2021/07/17 08:26:59;;;;;;;16.57;11.60;;;;;;;;;;5005398;28;20193;-73
2021/07/17 08:30:05;;;;;;;15.90;11.80;;;;;;;;;;5006161;28;20189;-73
2021/07/17 08:33:09;;;;;;;15.73;11.50;;;;;;;;;;4996010;28;20525;-73
2021/07/17 08:36:13;;;;;;;14.10;10.47;;;;;;;;;;4995235;28;20225;-73
2021/07/17 08:39:17;;;;;;;16.50;11.57;;;;;;;;;;4995314;28;20213;-73
2021/07/17 08:42:25;;;;;;;14.17;11.00;;;;;;;;;;4995125;28;20610;-73
2021/07/17 08:45:30;;;;;;;14.70;10.90;;;;;;;;;;4995432;28;20194;-73
2021/07/17 08:48:35;;;;;;;19.43;12.50;;;;;;;;;;5005953;28;20653;-73
2021/07/17 08:51:39;;;;;;;17.70;12.37;;;;;;;;;;4994288;28;20225;-73
2021/07/17 08:54:43;;;;;;;19.20;12.53;;;;;;;;;;5000806;28;20262;-73
2021/07/17 08:57:48;;;;;;;15.83;11.33;;;;;;;;;;4991043;28;20241;-73
2021/07/17 09:00:53;;;;;;;17.13;11.93;;;;;;;;;;4989648;28;20205;-73
2021/07/17 09:03:57;;;;;;;15.77;10.97;;;;;;;;;;4991207;28;20549;-73
2021/07/17 09:07:02;;;;;;;16.77;11.53;;;;;;;;;;4990440;28;20208;-73
2021/07/17 09:10:26;;;;;;;13.70;11.30;;;;;;;;;;4990418;28;20196;-73
2021/07/17 09:13:34;;;;;;;15.90;11.23;;;;;;;;;;4990130;28;20185;-73
2021/07/17 09:16:39;;;;;;;13.17;11.13;;;;;;;;;;4989559;28;20204;-72
2021/07/17 09:19:59;;;;;;;15.80;11.23;;;;;;;;;;5000938;28;20599;-73
2021/07/17 09:23:05;;;;;;;15.63;11.23;;;;;;;;;;4990812;28;20225;-73
2021/07/17 09:26:21;;;;;;;16.40;11.87;;;;;;;;;;4989815;28;20688;-73
2021/07/17 09:29:36;;;;;;;18.33;12.30;;;;;;;;;;4990332;28;20193;-73
2021/07/17 09:32:58;;;;;;;17.03;12.03;;;;;;;;;;4990780;28;20675;-73
2021/07/17 09:36:03;;;;;;;15.73;11.07;;;;;;;;;;4990549;28;20577;-72
2021/07/17 09:39:15;;;;;;;16.50;11.90;;;;;;;;;;4990274;28;20248;-73
2021/07/17 09:42:20;;;;;;;22.50;13.83;;;;;;;;;;4990069;28;20229;-72
2021/07/17 09:45:36;;;;;;;14.40;11.23;;;;;;;;;;4989837;28;20193;-73
2021/07/17 09:48:45;;;;;;;19.40;13.10;;;;;;;;;;4990090;28;20189;-73
2021/07/17 09:52:06;;;;;;;20.37;12.63;;;;;;;;;;5004840;28;20230;-73
2021/07/17 09:55:16;;;;;;;18.70;12.50;;;;;;;;;;4994550;28;20209;-73
2021/07/17 09:58:31;;;;;;;18.67;12.83;;;;;;;;;;5005211;28;20221;-73
2021/07/17 10:01:37;;;;;;;17.97;13.47;;;;;;;;;;4994751;28;20229;-74
2021/07/17 10:04:48;;;;;;;20.57;13.77;;;;;;;;;;4984778;28;20198;-73
2021/07/17 10:08:08;;;;;;;22.37;14.37;;;;;;;;;;4984289;28;20710;-73
2021/07/17 10:11:12;;;;;;;18.67;13.10;;;;;;;;;;4980053;28;20593;-73
2021/07/17 10:14:17;;;;;;;20.13;13.80;;;;;;;;;;4994293;23;20265;-73
2021/07/17 10:17:33;;;;;;;20.67;13.60;;;;;;;;;;5009716;23;20239;-73
2021/07/17 10:20:37;;;;;;;21.43;14.50;;;;;;;;;;5015582;28;20193;-73
2021/07/17 10:23:42;;;;;;;22.43;14.17;;;;;;;;;;4997381;28;20261;-73
2021/07/17 10:26:49;;;;;;;16.80;13.03;;;;;;;;;;4994156;28;20201;-73
2021/07/17 10:29:53;;;;;;;21.30;14.47;;;;;;;;;;4997475;28;20189;-73
2021/07/17 10:32:58;;;;;;;20.30;14.23;;;;;;;;;;4977946;28;20225;-73
2021/07/17 10:36:08;;;;;;;20.97;13.60;;;;;;;;;;4978373;28;20700;-73
2021/07/17 10:39:14;;;;;;;17.53;13.73;;;;;;;;;;4988839;28;20220;-73
2021/07/17 10:42:20;;;;;;;16.63;12.57;;;;;;;;;;4999391;28;20233;-73
2021/07/17 10:45:36;;;;;;;18.37;13.70;;;;;;;;;;5011592;28;20217;-73
2021/07/17 10:48:52;;;;;;;21.13;12.53;;;;;;;;;;5007922;28;20198;-73
2021/07/17 10:51:58;;;;;;;15.93;11.73;;;;;;;;;;4985193;28;20230;-73
2021/07/17 10:55:25;;;;;;;14.17;11.97;;;;;;;;;;4981221;28;20218;-73
2021/07/17 10:58:35;;;;;;;20.53;13.07;;;;;;;;;;4998200;28;20222;-73
2021/07/17 11:02:03;;;;;;;17.73;12.37;;;;;;;;;;4998453;28;20224;-73
2021/07/17 11:05:07;;;;;;;15.30;11.73;;;;;;;;;;4980923;28;20190;-73
2021/07/17 11:08:36;;;;;;;14.70;11.97;;;;;;;;;;4979200;28;20213;-73
2021/07/17 11:11:40;;;;;;;17.00;12.20;;;;;;;;;;5000362;28;20228;-73
2021/07/17 11:14:44;;;;;;;17.93;11.87;;;;;;;;;;5011861;28;20197;-73
2021/07/17 11:17:56;;;;;;;13.53;11.53;;;;;;;;;;4980909;28;20216;-73
2021/07/17 11:21:01;;;;;;;15.17;11.43;;;;;;;;;;4991460;28;20688;-73
2021/07/17 11:24:07;;;;;;;14.90;11.20;;;;;;;;;;5002187;28;20200;-73
2021/07/17 11:27:16;;;;;;;16.27;11.10;;;;;;;;;;4978867;28;20660;-73
2021/07/17 11:30:22;;;;;;;14.10;10.47;;;;;;;;;;4998754;28;20202;-73
2021/07/17 11:33:26;;;;;;;20.57;10.20;;;;;;;;;;4996955;28;20213;-73
2021/07/17 11:36:30;;;;;;;14.43;9.57;;;;;;;;;;5010375;23;20201;-77
2021/07/17 11:39:37;;;;;;;12.93;10.00;;;;;;;;;;4980230;28;20208;-78
2021/07/17 11:42:41;;;;;;;11.10;8.97;;;;;;;;;;4992776;28;20725;-78
2021/07/17 11:45:46;;;;;;;12.00;9.43;;;;;;;;;;4980195;28;20686;-78
2021/07/17 11:49:03;;;;;;;13.87;9.77;;;;;;;;;;4979141;28;20199;-77
2021/07/17 11:52:11;;;;;;;14.23;9.90;;;;;;;;;;4961104;28;20221;-77
2021/07/17 11:55:16;;;;;;;13.00;9.30;;;;;;;;;;4961624;28;20190;-77
2021/07/17 11:58:21;;;;;;;19.73;9.70;;;;;;;;;;4996506;28;20209;-77
2021/07/17 12:01:25;;;;;;;13.70;8.70;;;;;;;;;;4989326;28;20222;-77
2021/07/17 12:04:33;;;;;;;12.87;9.13;;;;;;;;;;5015868;28;20190;-77
2021/07/17 12:07:39;;;;;;;15.97;9.47;;;;;;;;;;5010399;28;20232;-77
2021/07/17 12:10:43;;;;;;;11.40;8.60;;;;;;;;;;4995223;28;20182;-76
2021/07/17 12:13:47;;;;;;;12.97;8.83;;;;;;;;;;4995116;28;20193;-77
2021/07/17 12:16:54;;;;;;;11.43;8.83;;;;;;;;;;4984960;28;20193;-76
2021/07/17 12:20:02;;;;;;;14.67;9.10;;;;;;;;;;4996605;28;20233;-77
2021/07/17 12:23:18;;;;;;;14.73;9.13;;;;;;;;;;4993503;28;20201;-76
2021/07/17 12:26:23;;;;;;;11.33;8.53;;;;;;;;;;4995283;28;20731;-77
2021/07/17 12:29:27;;;;;;;21.53;9.30;;;;;;;;;;4997258;28;20206;-77
2021/07/17 12:32:31;;;;;;;10.10;8.37;;;;;;;;;;4995999;28;20224;-77
2021/07/17 12:35:35;;;;;;;11.20;8.83;;;;;;;;;;4982601;28;20200;-77
2021/07/17 12:38:44;;;;;;;12.90;9.20;;;;;;;;;;4998365;28;20212;-77
2021/07/17 12:41:51;;;;;;;14.93;9.57;;;;;;;;;;4998654;28;20219;-77
2021/07/17 12:44:56;;;;;;;11.60;8.93;;;;;;;;;;5003310;28;20219;-78
2021/07/17 12:48:00;;;;;;;11.87;9.70;;;;;;;;;;5010194;28;20190;-78
2021/07/17 12:51:05;;;;;;;14.10;8.80;;;;;;;;;;4997025;28;20227;-77
2021/07/17 12:54:19;;;;;;;10.30;9.07;;;;;;;;;;5007264;28;20685;-77
2021/07/17 12:57:23;;;;;;;12.57;9.60;;;;;;;;;;4984987;28;20191;-77
2021/07/17 13:00:28;;;;;;;11.80;9.50;;;;;;;;;;4977465;28;20553;-78
2021/07/17 13:03:33;;;;;;;10.27;9.23;;;;;;;;;;4983275;28;20192;-77
2021/07/17 13:06:38;;;;;;;11.13;9.20;;;;;;;;;;4984798;28;20205;-77
2021/07/17 13:09:49;;;;;;;13.93;9.43;;;;;;;;;;4997979;28;20195;-76
2021/07/17 13:12:53;;;;;;;15.33;9.73;;;;;;;;;;4997666;28;20213;-76
2021/07/17 13:16:01;;;;;;;12.73;9.63;;;;;;;;;;4995416;28;20551;-77
2021/07/17 13:19:08;;;;;;;13.57;10.33;;;;;;;;;;4984168;28;20214;-77
2021/07/17 13:22:14;;;;;;;13.07;9.13;;;;;;;;;;4995737;28;20231;-76
2021/07/17 13:25:23;;;;;;;12.37;9.07;;;;;;;;;;5005882;28;20196;-77
2021/07/17 13:28:29;;;;;;;19.40;10.37;;;;;;;;;;4992935;28;20198;-77
2021/07/17 13:31:33;;;;;;;14.13;9.00;;;;;;;;;;4991107;28;20227;-77
2021/07/17 13:34:38;;;;;;;11.17;8.63;;;;;;;;;;4981667;28;20189;-77
2021/07/17 13:37:46;;;;;;;12.70;9.40;;;;;;;;;;5000994;28;20544;-78
2021/07/17 13:40:53;;;;;;;12.20;9.07;;;;;;;;;;4962934;28;20212;-77
2021/07/17 13:44:13;;;;;;;11.93;10.10;;;;;;;;;;4971967;28;20645;-77
2021/07/17 13:47:19;;;;;;;14.10;9.70;;;;;;;;;;4993270;28;20206;-77
2021/07/17 13:50:42;;;;;;;12.03;9.53;;;;;;;;;;4994144;28;20182;-77
2021/07/17 13:53:46;;;;;;;14.73;9.73;;;;;;;;;;4996051;28;20190;-77
2021/07/17 13:56:51;;;;;;;15.47;10.30;;;;;;;;;;4994636;28;20546;-77
2021/07/17 14:00:09;;;;;;;11.00;9.53;;;;;;;;;;5007064;28;20220;-77
2021/07/17 14:03:15;;;;;;;17.20;9.73;;;;;;;;;;4988680;28;20187;-77
2021/07/17 14:06:21;;;;;;;12.93;9.77;;;;;;;;;;4962641;28;20190;-77
2021/07/17 14:09:25;;;;;;;13.27;9.97;;;;;;;;;;4994498;28;20174;-77
2021/07/17 14:12:29;;;;;;;11.20;9.17;;;;;;;;;;4995569;28;20221;-77
2021/07/17 14:15:34;;;;;;;16.30;10.37;;;;;;;;;;5000162;28;20533;-76
2021/07/17 14:18:41;;;;;;;15.07;10.77;;;;;;;;;;4990117;28;20210;-76
2021/07/17 14:21:46;;;;;;;18.73;11.10;;;;;;;;;;5000488;28;20217;-77
2021/07/17 14:24:50;;;;;;;14.57;10.63;;;;;;;;;;4999905;28;20700;-76
2021/07/17 14:27:54;;;;;;;13.27;10.00;;;;;;;;;;4999670;28;20192;-77
2021/07/17 14:30:59;;;;;;;13.13;9.87;;;;;;;;;;4988251;28;20193;-77
2021/07/17 14:34:04;;;;;;;11.53;9.37;;;;;;;;;;4994999;28;20202;-77
2021/07/17 14:37:09;;;;;;;14.23;11.00;;;;;;;;;;5010171;28;20213;-78
2021/07/17 14:40:14;;;;;;;17.87;9.57;;;;;;;;;;4994661;28;20269;-77
2021/07/17 14:43:19;;;;;;;12.37;10.20;;;;;;;;;;4983755;28;20669;-77
2021/07/17 14:46:23;;;;;;;16.37;11.03;;;;;;;;;;4958813;28;20193;-77
2021/07/17 14:49:28;;;;;;;12.50;10.07;;;;;;;;;;4982016;28;20545;-76
2021/07/17 14:52:34;;;;;;;12.87;9.80;;;;;;;;;;5001324;28;20220;-76
2021/07/17 14:55:38;;;;;;;14.30;10.80;;;;;;;;;;4996308;28;20198;-77
2021/07/17 14:58:42;;;;;;;13.37;9.77;;;;;;;;;;4994197;28;20212;-77
2021/07/17 15:01:46;;;;;;;15.37;10.60;;;;;;;;;;5016675;28;20213;-77
2021/07/17 15:04:52;;;;;;;14.57;10.27;;;;;;;;;;5010685;28;20196;-77
2021/07/17 15:07:56;;;;;;;12.57;9.67;;;;;;;;;;5010921;28;20192;-77
2021/07/17 15:11:01;;;;;;;13.40;9.37;;;;;;;;;;5012474;28;20189;-77
2021/07/17 15:14:05;;;;;;;11.03;9.27;;;;;;;;;;5016756;28;20189;-77
2021/07/17 15:17:09;;;;;;;11.50;9.90;;;;;;;;;;4999875;28;20182;-77
2021/07/17 15:20:16;;;;;;;10.47;8.50;;;;;;;;;;5006160;28;20209;-77
2021/07/17 15:23:20;;;;;;;11.40;8.93;;;;;;;;;;4981159;28;20187;-77
2021/07/17 15:26:24;;;;;;;10.53;8.40;;;;;;;;;;5016704;28;20178;-77
2021/07/17 15:29:28;;;;;;;20.37;9.27;;;;;;;;;;4989928;28;20544;-77
2021/07/17 15:32:32;;;;;;;10.70;8.77;;;;;;;;;;5014796;28;20213;-76
2021/07/17 15:35:40;;;;;;;11.63;8.57;;;;;;;;;;5015208;28;20197;-77
2021/07/17 15:38:44;;;;;;;13.17;8.70;;;;;;;;;;4993001;28;20197;-77
2021/07/17 15:41:49;;;;;;;12.10;8.70;;;;;;;;;;4977087;28;20218;-76
2021/07/17 15:44:53;;;;;;;10.77;8.50;;;;;;;;;;4991617;28;20802;-78
2021/07/17 15:47:59;;;;;;;13.23;8.70;;;;;;;;;;4993066;28;20190;-77
2021/07/17 15:51:03;;;;;;;10.47;8.60;;;;;;;;;;4996520;28;20214;-77
2021/07/17 15:54:07;;;;;;;10.23;8.80;;;;;;;;;;4996672;28;20194;-77
2021/07/17 15:57:14;;;;;;;9.53;8.33;;;;;;;;;;5002912;28;20202;-77
2021/07/17 16:00:19;;;;;;;8.93;7.87;;;;;;;;;;5002620;28;20209;-77
2021/07/17 16:03:23;;;;;;;9.83;7.73;;;;;;;;;;4998722;28;20193;-77
2021/07/17 16:06:28;;;;;;;10.63;8.30;;;;;;;;;;4991442;28;20193;-77
2021/07/17 16:09:32;;;;;;;10.20;8.30;;;;;;;;;;4993870;28;20185;-77
2021/07/17 16:12:36;;;;;;;9.10;8.20;;;;;;;;;;4996705;28;20217;-76
2021/07/17 16:15:41;;;;;;;12.27;8.20;;;;;;;;;;4995806;28;20202;-76
2021/07/17 16:18:45;;;;;;;9.40;8.40;;;;;;;;;;4998930;28;21196;-77
2021/07/17 16:21:49;;;;;;;9.77;8.10;;;;;;;;;;5005980;28;20232;-77
2021/07/17 16:24:53;;;;;;;11.23;8.87;;;;;;;;;;5003171;28;20194;-77
2021/07/17 16:27:58;;;;;;;12.33;8.17;;;;;;;;;;5005013;28;20201;-76
2021/07/17 16:31:02;;;;;;;10.67;8.47;;;;;;;;;;4983683;28;20214;-76
2021/07/17 16:34:06;;;;;;;10.20;7.97;;;;;;;;;;5000084;28;20529;-75
2021/07/17 16:37:10;;;;;;;18.53;8.50;;;;;;;;;;5013025;28;20217;-77
2021/07/17 16:40:16;;;;;;;9.73;8.57;;;;;;;;;;4983597;28;20210;-77
2021/07/17 16:43:20;;;;;;;11.93;9.10;;;;;;;;;;4970280;28;20202;-78
2021/07/17 16:46:25;;;;;;;9.17;7.90;;;;;;;;;;5000078;28;20202;-77
2021/07/17 16:49:29;;;;;;;11.13;8.67;;;;;;;;;;4976030;28;20179;-76
2021/07/17 16:52:34;;;;;;;12.07;9.03;;;;;;;;;;4963982;28;20210;-77
2021/07/17 16:55:38;;;;;;;11.00;8.97;;;;;;;;;;4984866;28;20213;-77
2021/07/17 16:58:42;;;;;;;11.90;9.57;;;;;;;;;;4993601;28;20539;-76
2021/07/17 17:01:46;;;;;;;11.23;8.23;;;;;;;;;;5007339;28;20718;-77
2021/07/17 17:04:50;;;;;;;12.70;9.47;;;;;;;;;;4982880;28;20190;-77
2021/07/17 17:07:54;;;;;;;14.60;9.33;;;;;;;;;;4995180;28;20186;-77
2021/07/17 17:10:58;;;;;;;10.33;8.97;;;;;;;;;;4995440;28;20185;-76
2021/07/17 17:14:03;;;;;;;11.53;9.20;;;;;;;;;;4975609;28;20191;-77
2021/07/17 17:17:07;;;;;;;12.03;9.57;;;;;;;;;;4975789;28;20179;-77
2021/07/17 17:20:12;;;;;;;10.30;9.10;;;;;;;;;;4990897;28;20190;-77
2021/07/17 17:23:17;;;;;;;12.97;9.30;;;;;;;;;;4976767;28;20205;-77
2021/07/17 17:26:21;;;;;;;13.73;9.87;;;;;;;;;;4985123;28;20206;-77
2021/07/17 17:29:26;;;;;;;10.43;9.33;;;;;;;;;;4972274;28;20199;-77
2021/07/17 17:32:30;;;;;;;11.03;9.60;;;;;;;;;;4982828;28;20695;-77
2021/07/17 17:35:34;;;;;;;14.47;10.30;;;;;;;;;;4998988;28;20198;-78
2021/07/17 17:38:39;;;;;;;11.10;9.70;;;;;;;;;;5009508;28;20224;-77
2021/07/17 17:41:43;;;;;;;13.13;10.67;;;;;;;;;;4995775;28;20233;-77
2021/07/17 17:44:47;;;;;;;14.30;9.97;;;;;;;;;;4991776;28;20193;-77
2021/07/17 17:47:51;;;;;;;13.60;9.60;;;;;;;;;;5006003;28;20197;-77
2021/07/17 17:50:57;;;;;;;12.47;10.63;;;;;;;;;;4960039;28;20525;-77
2021/07/17 17:54:02;;;;;;;13.10;10.80;;;;;;;;;;4999910;28;20683;-77
2021/07/17 17:57:09;;;;;;;12.27;10.30;;;;;;;;;;4994877;28;20635;-77
2021/07/17 18:00:19;;;;;;;14.97;10.83;;;;;;;;;;4991416;28;20193;-77
2021/07/17 18:03:23;;;;;;;15.47;10.57;;;;;;;;;;4993829;28;20217;-77
2021/07/17 18:06:27;;;;;;;13.60;10.70;;;;;;;;;;5001325;28;20204;-77
2021/07/17 18:09:31;;;;;;;13.13;10.70;;;;;;;;;;4994493;28;20197;-77
2021/07/17 18:12:35;;;;;;;11.73;10.53;;;;;;;;;;4986438;28;20232;-77